Time;durP1;ratioP1;P1;durP2;ratioP2;P2;SDS_P1;SDS_P2;PMS_P1;PMS_P2;Temp;Humidity;BMP_temperature;BMP_pressure;BME280_temperature;BME280_humidity;BME280_pressure;Samples;Min_cycle;Max_cycle;Signal;HPM_P1;HPM_P2
2023/08/21 00:01:59;;;;;;;12.50;8.70;;;;;;;22.85;67.58;99537.29;107520;1254;71827;-38
2023/08/21 00:04:27;;;;;;;13.60;8.50;;;;;;;22.87;67.68;99535.48;107541;1252;67638;-38
2023/08/21 00:06:55;;;;;;;13.20;8.90;;;;;;;22.88;66.99;99537.21;107609;1252;72298;-38
2023/08/21 00:09:22;;;;;;;10.70;9.20;;;;;;;22.88;66.53;99533.88;107611;1258;59611;-38
2023/08/21 00:11:50;;;;;;;10.90;9.80;;;;;;;22.88;66.22;99535.39;107532;1253;59609;-38
2023/08/21 00:14:17;;;;;;;11.00;9.10;;;;;;;22.87;65.96;99535.10;107540;1254;73037;-38
2023/08/21 00:16:45;;;;;;;14.00;9.40;;;;;;;22.86;66.04;99541.45;107588;1254;66280;-39
2023/08/21 00:19:13;;;;;;;11.20;8.40;;;;;;;22.87;65.84;99533.36;107371;1254;73064;-38
2023/08/21 00:21:40;;;;;;;13.10;9.20;;;;;;;22.90;65.86;99535.98;107529;1259;59717;-38
2023/08/21 00:24:08;;;;;;;10.30;9.30;;;;;;;22.88;65.84;99540.60;107484;1254;59343;-38
2023/08/21 00:26:35;;;;;;;12.10;9.40;;;;;;;22.84;65.89;99540.96;107640;1257;73084;-38
2023/08/21 00:29:03;;;;;;;10.40;9.40;;;;;;;22.82;65.91;99540.46;107511;1254;66319;-38
2023/08/21 00:31:31;;;;;;;13.10;9.60;;;;;;;22.76;65.86;99543.30;107546;1254;71385;-38
2023/08/21 00:33:59;;;;;;;11.10;9.20;;;;;;;22.71;66.06;99544.73;107500;1254;61675;-38
2023/08/21 00:36:27;;;;;;;9.80;8.50;;;;;;;22.71;66.02;99545.41;107455;1254;59622;-39
2023/08/21 00:38:54;;;;;;;15.30;9.20;;;;;;;22.74;66.05;99542.59;107277;1254;73058;-39
2023/08/21 00:41:22;;;;;;;13.80;9.20;;;;;;;22.73;66.03;99543.08;107505;1253;67690;-38
2023/08/21 00:43:49;;;;;;;12.70;9.50;;;;;;;22.73;65.97;99540.15;107544;1253;71397;-38
2023/08/21 00:46:18;;;;;;;10.70;9.20;;;;;;;22.72;65.86;99537.09;107550;1254;60491;-38
2023/08/21 00:48:45;;;;;;;10.50;9.40;;;;;;;22.71;65.90;99539.96;107486;1254;60424;-38
2023/08/21 00:51:14;;;;;;;11.70;9.10;;;;;;;22.68;66.02;99540.98;107423;1254;72576;-38
2023/08/21 00:53:42;;;;;;;13.70;9.00;;;;;;;22.70;65.99;99536.92;107352;1254;67760;-38
2023/08/21 00:56:09;;;;;;;12.00;9.20;;;;;;;22.72;65.97;99533.16;107404;1254;72699;-38
2023/08/21 00:58:38;;;;;;;14.40;9.10;;;;;;;22.70;65.98;99534.78;107358;1254;60397;-38
2023/08/21 01:01:05;;;;;;;10.70;9.50;;;;;;;22.66;66.17;99538.27;107463;1254;60537;-39
2023/08/21 01:03:33;;;;;;;12.80;10.00;;;;;;;22.63;66.23;99539.86;107375;1253;75709;-39
2023/08/21 01:06:01;;;;;;;10.90;9.70;;;;;;;22.60;66.34;99542.15;107365;1253;68068;-38
2023/08/21 01:08:38;;;;;;;10.40;9.30;;;;;;;22.58;66.37;99540.23;107409;1253;72699;-38
2023/08/21 01:11:15;;;;;;;13.70;8.90;;;;;;;22.58;66.35;99541.10;107246;1254;60879;-39
2023/08/21 01:13:51;;;;;;;11.70;9.40;;;;;;;22.59;66.47;99543.13;107619;1253;60355;-41
2023/08/21 01:16:18;;;;;;;14.40;9.60;;;;;;;22.58;66.47;99543.70;107341;1252;73818;-40
2023/08/21 01:18:46;;;;;;;11.20;9.80;;;;;;;22.56;66.73;99547.80;107096;1254;67937;-41
2023/08/21 01:21:14;;;;;;;14.10;9.60;;;;;;;22.53;66.90;99544.15;107357;1258;72871;-40
2023/08/21 01:23:43;;;;;;;11.00;9.90;;;;;;;22.49;66.95;99549.38;107235;1259;60447;-40
2023/08/21 01:26:11;;;;;;;11.50;9.50;;;;;;;22.49;66.89;99552.63;107497;1254;60655;-41
2023/08/21 01:28:38;;;;;;;13.60;9.60;;;;;;;22.49;67.07;99552.63;107327;1254;73868;-40
2023/08/21 01:31:17;;;;;;;11.70;9.50;;;;;;;22.49;67.24;99555.79;107439;1256;66309;-40
2023/08/21 01:33:47;;;;;;;11.60;9.90;;;;;;;22.47;67.46;99564.27;107376;1253;71386;-40
2023/08/21 01:36:25;;;;;;;11.10;10.10;;;;;;;22.44;67.31;99567.73;107534;1255;60890;-43
2023/08/21 01:38:53;;;;;;;11.40;9.50;;;;;;;22.40;67.43;99571.35;107335;1259;60306;-40
2023/08/21 01:41:24;;;;;;;10.70;9.50;;;;;;;22.35;67.38;99572.56;107030;1254;72656;-40
2023/08/21 01:43:51;;;;;;;10.50;9.50;;;;;;;22.33;67.57;99571.43;107418;1254;67577;-39
2023/08/21 01:46:19;;;;;;;15.70;10.10;;;;;;;22.26;67.74;99577.70;107481;1254;71436;-40
2023/08/21 01:48:48;;;;;;;11.50;10.30;;;;;;;22.16;68.19;99573.52;107323;1253;59709;-40
2023/08/21 01:51:16;;;;;;;12.10;10.90;;;;;;;22.11;68.45;99568.68;107431;1254;60418;-39
2023/08/21 01:53:44;;;;;;;12.50;10.20;;;;;;;22.10;68.52;99566.02;107503;1254;72625;-39
2023/08/21 01:56:12;;;;;;;11.40;10.10;;;;;;;22.10;68.48;99566.56;107493;1254;67565;-39
2023/08/21 01:58:40;;;;;;;14.20;9.50;;;;;;;22.15;68.53;99565.03;107499;1258;71488;-39
2023/08/21 02:01:07;;;;;;;15.20;10.50;;;;;;;22.15;68.59;99568.35;107463;1254;60400;-39
2023/08/21 02:03:35;;;;;;;14.10;10.80;;;;;;;22.08;68.75;99569.67;107405;1254;60498;-39
2023/08/21 02:06:03;;;;;;;12.30;11.00;;;;;;;22.04;68.77;99566.55;107485;1254;72663;-40
2023/08/21 02:08:34;;;;;;;12.70;10.90;;;;;;;22.03;68.82;99565.87;107502;1254;66793;-39
2023/08/21 02:11:02;;;;;;;12.00;10.50;;;;;;;22.07;68.89;99563.01;107515;1254;72709;-39
2023/08/21 02:13:29;;;;;;;11.90;10.70;;;;;;;22.12;68.65;99565.50;107451;1254;60396;-39
2023/08/21 02:15:57;;;;;;;12.80;10.30;;;;;;;22.14;68.55;99562.44;107354;1254;60498;-39
2023/08/21 02:18:26;;;;;;;12.20;11.00;;;;;;;22.14;68.68;99566.08;107489;1254;72651;-39
2023/08/21 02:20:53;;;;;;;13.20;11.50;;;;;;;22.14;68.55;99560.23;107456;1254;67650;-39
2023/08/21 02:23:21;;;;;;;13.40;10.50;;;;;;;22.13;68.75;99567.11;107317;1253;73244;-39
2023/08/21 02:25:49;;;;;;;11.90;9.60;;;;;;;22.14;68.59;99568.84;107361;1254;61683;-39
2023/08/21 02:28:17;;;;;;;11.90;10.70;;;;;;;22.09;68.63;99568.33;107220;1253;60477;-39
2023/08/21 02:30:47;;;;;;;13.70;10.80;;;;;;;22.05;68.60;99569.45;107298;1258;72556;-39
2023/08/21 02:33:15;;;;;;;12.80;10.70;;;;;;;22.02;68.87;99569.45;107495;1253;67534;-39
2023/08/21 02:35:43;;;;;;;14.10;11.30;;;;;;;22.02;68.96;99569.38;107327;1256;71409;-39
2023/08/21 02:38:11;;;;;;;11.80;10.70;;;;;;;22.02;68.88;99571.90;107389;1254;61673;-39
2023/08/21 02:40:39;;;;;;;11.80;10.40;;;;;;;22.05;68.88;99569.91;107434;1254;60409;-39
2023/08/21 02:43:06;;;;;;;11.90;10.70;;;;;;;22.10;68.77;99573.91;107485;1254;73862;-39
2023/08/21 02:45:34;;;;;;;14.10;10.90;;;;;;;22.10;68.89;99575.23;107359;1254;68063;-39
2023/08/21 02:48:02;;;;;;;13.40;11.20;;;;;;;22.08;68.70;99569.91;107493;1258;72717;-39
2023/08/21 02:50:30;;;;;;;12.90;11.50;;;;;;;22.05;68.99;99570.64;107490;1253;60313;-40
2023/08/21 02:52:58;;;;;;;16.50;11.20;;;;;;;22.03;68.92;99566.91;107431;1254;60281;-39
2023/08/21 02:55:26;;;;;;;12.10;10.90;;;;;;;22.05;68.83;99565.34;107523;1253;72592;-39
2023/08/21 02:57:54;;;;;;;12.20;10.90;;;;;;;22.06;68.74;99566.44;107476;1254;67602;-39
2023/08/21 03:00:21;;;;;;;12.50;11.30;;;;;;;22.00;68.88;99562.23;107545;1254;71152;-39
2023/08/21 03:02:50;;;;;;;12.40;11.10;;;;;;;21.94;69.11;99560.16;107426;1254;60395;-39
2023/08/21 03:05:18;;;;;;;12.10;10.90;;;;;;;21.91;69.04;99559.83;107495;1254;60379;-39
2023/08/21 03:07:45;;;;;;;12.40;11.10;;;;;;;21.88;69.29;99561.80;107462;1254;73786;-39
2023/08/21 03:10:14;;;;;;;15.00;10.90;;;;;;;21.89;69.20;99557.42;107581;1254;66740;-39
2023/08/21 03:12:42;;;;;;;12.30;11.10;;;;;;;21.90;69.12;99555.65;107516;1254;72490;-39
2023/08/21 03:15:10;;;;;;;14.80;11.40;;;;;;;21.88;69.37;99561.30;107500;1254;60440;-40
2023/08/21 03:17:37;;;;;;;12.50;11.10;;;;;;;21.83;69.40;99560.48;107338;1254;60406;-39
2023/08/21 03:20:06;;;;;;;12.80;11.50;;;;;;;21.80;69.55;99558.75;107492;1254;73895;-39
2023/08/21 03:22:34;;;;;;;12.40;11.10;;;;;;;21.78;69.51;99555.50;108728;1254;67598;-39
2023/08/21 03:25:03;;;;;;;12.30;10.70;;;;;;;21.80;69.37;99557.08;107348;1254;72677;-37
2023/08/21 03:27:31;;;;;;;11.70;10.60;;;;;;;21.84;69.14;99559.20;107414;1255;60497;-40
2023/08/21 03:30:00;;;;;;;13.20;11.20;;;;;;;21.85;69.07;99560.98;107343;1253;60560;-39
2023/08/21 03:32:28;;;;;;;12.90;11.60;;;;;;;21.86;69.25;99559.25;107442;1254;72571;-38
2023/08/21 03:34:57;;;;;;;12.40;11.20;;;;;;;21.84;69.10;99560.46;107262;1254;66436;-38
2023/08/21 03:37:24;;;;;;;12.20;10.90;;;;;;;21.80;69.13;99562.92;107376;1259;72658;-39
2023/08/21 03:39:52;;;;;;;11.30;10.20;;;;;;;21.79;69.23;99558.92;107405;1254;60373;-39
2023/08/21 03:42:20;;;;;;;11.40;9.90;;;;;;;21.83;69.12;99560.41;107360;1254;59668;-39
2023/08/21 03:44:49;;;;;;;12.00;10.20;;;;;;;21.84;69.06;99557.61;107416;1254;73860;-40
2023/08/21 03:47:17;;;;;;;;;;;;;;;21.83;68.86;99555.83;107358;1254;67613;-39
2023/08/21 03:49:53;;;;;;;13.60;10.30;;;;;;;21.85;68.92;99557.20;107402;1258;71446;-40
2023/08/21 03:52:22;;;;;;;13.60;10.50;;;;;;;21.85;68.87;99553.95;107294;1257;60511;-39
2023/08/21 03:54:49;;;;;;;14.40;9.90;;;;;;;21.91;68.71;99554.31;107334;1253;60286;-39
2023/08/21 03:57:18;;;;;;;11.40;10.00;;;;;;;21.96;68.55;99553.91;107274;1254;74048;-41
2023/08/21 03:59:46;;;;;;;11.60;10.40;;;;;;;21.96;68.45;99554.14;107528;1254;66273;-41
2023/08/21 04:02:13;;;;;;;13.30;11.00;;;;;;;21.98;68.33;99560.06;107434;1254;71907;-39
2023/08/21 04:04:42;;;;;;;12.40;10.20;;;;;;;22.01;68.14;99559.12;107368;1254;60325;-39
2023/08/21 04:07:12;;;;;;;11.50;10.20;;;;;;;22.02;67.98;99555.02;107413;1257;59581;-39
2023/08/21 04:09:39;;;;;;;12.70;10.30;;;;;;;22.00;67.93;99558.13;107385;1254;73858;-39
2023/08/21 04:12:07;;;;;;;10.00;9.10;;;;;;;22.02;67.81;99561.40;107298;1254;66347;-39
2023/08/21 04:14:35;;;;;;;15.90;9.40;;;;;;;22.08;67.56;99560.37;107343;1254;72732;-39
2023/08/21 04:17:03;;;;;;;12.20;9.40;;;;;;;22.08;67.30;99560.68;107475;1254;60414;-38
2023/08/21 04:19:33;;;;;;;12.60;10.70;;;;;;;22.03;66.95;99557.13;107288;1259;59209;-38
2023/08/21 04:22:02;;;;;;;13.70;10.10;;;;;;;21.99;66.86;99560.68;107289;1259;72671;-38
2023/08/21 04:24:30;;;;;;;13.00;10.70;;;;;;;21.96;66.80;99554.53;107260;1261;67865;-38
2023/08/21 04:26:58;;;;;;;14.00;10.90;;;;;;;21.91;66.84;99557.06;107296;1259;72674;-38
2023/08/21 04:29:25;;;;;;;13.00;9.60;;;;;;;21.92;66.66;99557.92;107416;1254;61720;-38
2023/08/21 04:31:53;;;;;;;12.20;10.80;;;;;;;21.95;66.75;99558.32;107395;1255;60434;-38
2023/08/21 04:34:21;;;;;;;14.30;11.00;;;;;;;22.02;67.24;99563.05;107309;1254;73906;-38
2023/08/21 04:36:49;;;;;;;19.20;12.80;;;;;;;22.11;67.29;99563.95;107293;1260;67613;-39
2023/08/21 04:39:17;;;;;;;13.20;11.30;;;;;;;22.18;67.10;99559.13;107332;1255;71062;-38
2023/08/21 04:41:45;;;;;;;16.30;11.70;;;;;;;22.20;66.99;99558.90;107370;1254;60415;-38
2023/08/21 04:44:13;;;;;;;18.40;11.30;;;;;;;22.26;66.92;99560.73;107336;1254;60281;-39
2023/08/21 04:46:42;;;;;;;15.90;11.40;;;;;;;22.36;66.73;99561.56;107349;1254;73041;-38
2023/08/21 04:49:10;;;;;;;15.00;11.50;;;;;;;22.42;66.66;99560.80;107350;1254;66907;-38
2023/08/21 04:51:38;;;;;;;13.10;11.60;;;;;;;22.47;66.58;99563.66;107341;1258;72667;-39
2023/08/21 04:54:05;;;;;;;15.50;11.70;;;;;;;22.52;66.32;99561.61;107248;1262;60124;-38
2023/08/21 04:56:33;;;;;;;19.00;11.00;;;;;;;22.55;66.45;99567.77;107272;1254;60427;-38
2023/08/21 04:59:02;;;;;;;13.30;9.90;;;;;;;22.58;66.51;99566.12;107419;1254;72638;-38
2023/08/21 05:01:30;;;;;;;13.50;9.10;;;;;;;22.64;66.49;99567.61;107356;1254;67730;-39
2023/08/21 05:03:58;;;;;;;15.40;9.40;;;;;;;22.72;66.57;99562.77;107432;1255;71491;-41
2023/08/21 05:06:26;;;;;;;13.20;9.00;;;;;;;22.78;66.24;99563.48;107465;1254;60535;-38
2023/08/21 05:08:54;;;;;;;11.00;9.20;;;;;;;22.80;66.05;99564.66;107500;1254;60215;-39
2023/08/21 05:11:22;;;;;;;9.60;8.20;;;;;;;22.82;66.22;99565.81;107295;1254;73304;-38
2023/08/21 05:13:50;;;;;;;9.90;8.70;;;;;;;22.83;65.74;99565.00;107303;1255;67562;-38
2023/08/21 05:16:18;;;;;;;9.40;8.40;;;;;;;22.82;65.59;99561.38;107351;1254;71446;-38
2023/08/21 05:18:46;;;;;;;8.70;7.80;;;;;;;22.87;65.90;99561.34;107368;1258;60699;-38
2023/08/21 05:21:15;;;;;;;11.10;7.90;;;;;;;22.94;65.78;99560.34;107362;1254;60980;-38
2023/08/21 05:23:42;;;;;;;9.90;8.60;;;;;;;22.97;65.91;99560.27;107291;1254;73854;-38
2023/08/21 05:26:10;;;;;;;9.60;8.50;;;;;;;22.99;65.89;99563.45;107305;1254;66757;-39
2023/08/21 05:28:38;;;;;;;9.70;8.40;;;;;;;23.01;66.13;99560.30;107444;1254;71556;-39
2023/08/21 05:31:06;;;;;;;10.80;8.10;;;;;;;23.08;66.24;99562.39;107429;1253;60480;-39
2023/08/21 05:33:45;;;;;;;12.00;8.60;;;;;;;23.19;66.07;99562.39;107401;1254;60329;-38
2023/08/21 05:36:13;;;;;;;8.80;8.00;;;;;;;23.32;65.99;99565.23;107492;1259;73828;-38
2023/08/21 05:38:41;;;;;;;8.90;8.00;;;;;;;23.45;65.80;99565.50;107534;1255;67928;-38
2023/08/21 05:41:09;;;;;;;9.40;8.60;;;;;;;23.52;65.49;99567.83;107447;1257;71488;-39
2023/08/21 05:43:36;;;;;;;9.10;8.00;;;;;;;23.56;65.38;99568.83;107483;1254;60550;-39
2023/08/21 05:46:08;;;;;;;10.00;9.00;;;;;;;23.61;65.53;99568.77;107384;1254;60387;-39
2023/08/21 05:48:36;;;;;;;13.50;9.10;;;;;;;23.66;65.53;99567.23;107343;1259;73950;-39
2023/08/21 05:51:04;;;;;;;8.30;7.50;;;;;;;23.76;65.53;99561.64;107380;1259;67755;-39
2023/08/21 05:53:32;;;;;;;9.90;8.00;;;;;;;23.87;65.52;99561.27;107488;1254;72694;-39
2023/08/21 05:56:00;;;;;;;12.90;8.20;;;;;;;23.96;65.19;99565.73;107453;1257;60548;-38
2023/08/21 05:58:31;;;;;;;8.70;7.90;;;;;;;24.01;65.10;99565.88;107525;1257;60431;-39
2023/08/21 06:00:58;;;;;;;9.50;7.80;;;;;;;24.07;64.98;99565.21;107506;1254;73876;-39
2023/08/21 06:03:27;;;;;;;9.50;8.10;;;;;;;24.15;64.73;99564.65;107562;1259;66767;-39
2023/08/21 06:06:04;;;;;;;14.20;7.60;;;;;;;24.24;64.78;99563.59;107393;1259;73466;-39
2023/08/21 06:08:32;;;;;;;11.50;7.50;;;;;;;24.36;64.51;99565.46;107470;1260;60466;-39
2023/08/21 06:11:00;;;;;;;10.00;7.60;;;;;;;24.48;64.01;99567.52;107376;1259;60546;-38
2023/08/21 06:13:28;;;;;;;9.10;7.40;;;;;;;24.59;63.66;99565.79;107260;1254;73858;-39
2023/08/21 06:15:56;;;;;;;9.40;7.70;;;;;;;24.69;63.61;99566.14;107375;1260;67084;-39
2023/08/21 06:18:24;;;;;;;8.70;7.90;;;;;;;24.80;63.77;99570.11;107336;1258;72629;-38
2023/08/21 06:20:53;;;;;;;9.50;7.90;;;;;;;24.90;63.28;99570.03;107268;1253;60467;-39
2023/08/21 06:23:21;;;;;;;9.50;8.20;;;;;;;24.98;62.95;99567.73;107513;1258;61139;-39
2023/08/21 06:25:49;;;;;;;9.90;8.70;;;;;;;25.04;62.67;99567.42;107490;1260;74199;-39
2023/08/21 06:28:18;;;;;;;9.60;8.00;;;;;;;25.09;62.28;99573.67;107505;1255;66997;-39
2023/08/21 06:30:46;;;;;;;8.90;7.70;;;;;;;25.15;62.27;99571.86;107384;1257;72714;-39
2023/08/21 06:33:14;;;;;;;8.90;7.90;;;;;;;25.25;61.82;99569.29;107371;1255;60382;-39
2023/08/21 06:35:45;;;;;;;9.90;7.60;;;;;;;25.34;61.96;99569.09;107390;1257;61095;-39
2023/08/21 06:38:17;;;;;;;11.20;7.90;;;;;;;25.43;62.02;99566.74;107237;1254;72707;-39
2023/08/21 06:40:48;;;;;;;9.70;8.10;;;;;;;25.53;61.87;99564.55;107442;1260;66623;-39
2023/08/21 06:43:15;;;;;;;10.60;8.30;;;;;;;25.62;61.62;99565.18;107346;1256;72726;-39
2023/08/21 06:45:46;;;;;;;9.00;7.70;;;;;;;25.69;60.97;99565.08;107231;1253;60395;-39
2023/08/21 06:48:14;;;;;;;15.00;8.30;;;;;;;25.74;60.74;99563.83;107353;1260;60386;-39
2023/08/21 06:50:41;;;;;;;8.00;7.30;;;;;;;25.79;60.81;99559.26;107503;1260;72559;-39
2023/08/21 06:53:09;;;;;;;11.20;7.70;;;;;;;25.85;60.51;99556.71;107384;1254;66424;-39
2023/08/21 06:55:37;;;;;;;8.70;7.80;;;;;;;25.94;60.40;99558.72;107382;1257;72723;-39
2023/08/21 06:58:04;;;;;;;7.40;6.60;;;;;;;26.08;60.23;99556.34;107432;1254;60475;-39
2023/08/21 07:00:32;;;;;;;8.20;6.70;;;;;;;26.22;60.02;99558.61;107457;1253;60714;-39
2023/08/21 07:03:00;;;;;;;7.40;6.20;;;;;;;26.34;58.97;99557.34;107429;1260;73837;-39
2023/08/21 07:05:27;;;;;;;8.60;6.50;;;;;;;26.42;57.44;99555.48;107523;1254;67727;-39
2023/08/21 07:07:55;;;;;;;9.10;6.30;;;;;;;26.50;57.43;99557.06;107452;1260;73022;-39
2023/08/21 07:10:23;;;;;;;10.60;6.90;;;;;;;26.60;57.57;99558.37;107459;1259;60306;-39
2023/08/21 07:12:53;;;;;;;7.80;6.60;;;;;;;26.70;57.50;99557.54;107462;1254;60392;-39
2023/08/21 07:15:21;;;;;;;7.40;6.70;;;;;;;26.79;57.13;99558.19;107453;1254;72678;-39
2023/08/21 07:17:48;;;;;;;8.70;6.20;;;;;;;26.87;56.64;99561.41;107581;1257;67546;-39
2023/08/21 07:20:16;;;;;;;7.90;6.30;;;;;;;26.94;56.26;99562.61;107400;1257;72732;-39
2023/08/21 07:22:44;;;;;;;8.20;6.00;;;;;;;27.00;55.30;99559.33;107455;1254;60920;-39
2023/08/21 07:25:15;;;;;;;7.40;6.50;;;;;;;27.04;56.10;99559.35;107515;1255;60306;-39
2023/08/21 07:27:44;;;;;;;7.80;6.40;;;;;;;27.14;55.60;99561.55;107432;1254;73669;-41
2023/08/21 07:30:12;;;;;;;6.80;6.10;;;;;;;27.24;54.91;99561.27;107321;1254;67991;-40
2023/08/21 07:32:39;;;;;;;6.60;5.80;;;;;;;27.33;55.19;99560.02;107470;1257;71758;-39
2023/08/21 07:35:08;;;;;;;6.50;5.90;;;;;;;27.42;54.30;99562.48;107443;1257;60287;-39
2023/08/21 07:37:35;;;;;;;7.60;6.30;;;;;;;27.50;54.51;99558.39;107555;1255;59569;-39
2023/08/21 07:40:05;;;;;;;8.50;6.00;;;;;;;27.57;54.67;99559.08;107519;1254;72558;-39
2023/08/21 07:42:33;;;;;;;8.30;6.10;;;;;;;27.64;53.75;99557.63;107551;1259;66293;-39
2023/08/21 07:45:01;;;;;;;10.00;6.20;;;;;;;27.74;53.85;99555.96;107460;1257;73054;-40
2023/08/21 07:47:29;;;;;;;8.70;6.00;;;;;;;27.84;53.59;99555.64;107513;1255;60472;-39
2023/08/21 07:49:57;;;;;;;7.60;5.80;;;;;;;27.93;53.35;99550.83;107469;1255;60423;-39
2023/08/21 07:52:25;;;;;;;7.10;6.10;;;;;;;28.01;52.96;99545.39;107479;1254;73929;-39
2023/08/21 07:54:53;;;;;;;9.70;5.90;;;;;;;28.09;52.98;99541.02;107510;1254;67534;-39
2023/08/21 07:57:20;;;;;;;6.40;5.80;;;;;;;28.27;52.76;99544.09;107348;1259;72727;-39
2023/08/21 07:59:48;;;;;;;6.60;5.60;;;;;;;28.39;52.05;99538.41;107425;1255;60434;-39
2023/08/21 08:02:16;;;;;;;10.90;6.50;;;;;;;28.47;51.07;99541.33;107483;1254;60491;-39
2023/08/21 08:04:44;;;;;;;7.70;5.90;;;;;;;28.54;51.39;99541.70;107494;1255;73841;-39
2023/08/21 08:07:12;;;;;;;10.00;6.10;;;;;;;28.62;50.76;99544.09;107411;1254;68373;-39
2023/08/21 08:09:40;;;;;;;9.30;6.30;;;;;;;28.66;50.55;99544.32;107360;1257;72714;-39
2023/08/21 08:12:08;;;;;;;7.10;5.80;;;;;;;28.70;50.26;99547.03;107393;1254;60508;-39
2023/08/21 08:14:36;;;;;;;7.50;5.60;;;;;;;28.76;50.45;99543.98;107399;1253;60523;-39
2023/08/21 08:17:04;;;;;;;6.30;5.50;;;;;;;28.89;50.65;99546.75;107367;1258;73888;-39
2023/08/21 08:19:31;;;;;;;6.10;5.40;;;;;;;29.00;49.69;99548.46;107500;1259;66307;-39
2023/08/21 08:21:59;;;;;;;9.10;5.80;;;;;;;29.08;49.29;99545.66;107444;1254;72732;-39
2023/08/21 08:24:26;;;;;;;7.10;6.10;;;;;;;29.18;49.06;99542.33;107468;1254;60427;-39
2023/08/21 08:26:54;;;;;;;7.80;5.90;;;;;;;29.29;49.29;99540.35;107446;1254;60979;-39
2023/08/21 08:29:22;;;;;;;7.00;5.60;;;;;;;29.44;49.25;99541.08;107515;1254;73811;-39
2023/08/21 08:31:50;;;;;;;7.50;5.40;;;;;;;29.58;48.93;99541.64;107506;1254;67562;-39
2023/08/21 08:34:20;;;;;;;8.70;5.60;;;;;;;29.66;47.72;99541.02;107475;1254;72667;-39
2023/08/21 08:36:48;;;;;;;9.00;5.20;;;;;;;29.73;48.13;99531.41;107413;1254;60673;-39
2023/08/21 08:39:16;;;;;;;9.50;5.30;;;;;;;29.86;47.88;99536.48;107392;1254;60024;-40
2023/08/21 08:41:49;;;;;;;7.00;5.20;;;;;;;29.96;46.60;99537.56;107590;1255;73284;-40
2023/08/21 08:44:17;;;;;;;7.70;5.30;;;;;;;30.05;46.50;99534.11;107500;1254;67648;-40
2023/08/21 08:46:45;;;;;;;7.40;5.00;;;;;;;30.11;46.35;99532.71;107617;1254;72964;-40
2023/08/21 08:49:12;;;;;;;6.60;5.30;;;;;;;30.18;46.35;99528.24;107535;1251;60466;-40
2023/08/21 08:54:31;;;;;;;6.30;5.20;;;;;;;30.33;45.45;99525.52;104222;1292;601130;-39
2023/08/21 08:57:06;;;;;;;8.50;5.10;;;;;;;30.35;45.29;99525.60;106699;1264;60058;-41
2023/08/21 08:59:37;;;;;;;7.20;5.10;;;;;;;30.38;44.96;99529.10;106584;1266;60178;-39
2023/08/21 09:02:05;;;;;;;7.70;5.40;;;;;;;30.45;44.92;99524.40;106723;1267;72256;-40
2023/08/21 09:04:32;;;;;;;5.70;5.20;;;;;;;30.52;45.29;99517.02;106608;1269;68139;-40
2023/08/21 09:07:10;;;;;;;6.60;5.30;;;;;;;30.64;45.14;99512.07;106468;1264;134217;-41
2023/08/21 09:09:41;;;;;;;8.00;5.40;;;;;;;30.80;44.80;99511.96;106778;1263;59233;-41
2023/08/21 09:12:13;;;;;;;7.60;5.50;;;;;;;30.91;45.14;99512.19;106709;1263;60038;-40
2023/08/21 09:14:42;;;;;;;6.00;5.20;;;;;;;30.97;44.23;99511.68;106716;1264;72262;-41
2023/08/21 09:17:09;;;;;;;8.90;5.30;;;;;;;30.97;44.47;99511.84;106731;1264;67596;-41
2023/08/21 09:19:37;;;;;;;5.60;5.00;;;;;;;30.93;43.74;99514.65;106725;1264;72651;-41
2023/08/21 09:22:15;;;;;;;8.70;5.00;;;;;;;30.78;43.49;99517.23;106691;1265;59701;-41
2023/08/21 09:25:06;;;;;;;6.00;5.00;;;;;;;30.57;43.69;99515.04;106710;1263;60228;-41
2023/08/21 09:27:35;;;;;;;6.50;4.70;;;;;;;30.48;44.08;99508.39;106705;1263;73538;-41
2023/08/21 09:30:05;;;;;;;5.40;4.70;;;;;;;30.54;44.80;99510.64;106707;1266;67596;-41
2023/08/21 09:33:04;;;;;;;6.30;4.60;;;;;;;30.61;42.89;99510.67;106749;1264;70714;-41
2023/08/21 09:35:32;;;;;;;7.20;4.50;;;;;;;30.57;43.12;99507.36;106668;1263;60166;-41
2023/08/21 09:38:00;;;;;;;5.20;4.20;;;;;;;30.48;42.87;99506.45;106723;1263;59561;-41
2023/08/21 09:40:28;;;;;;;8.20;4.60;;;;;;;30.46;42.73;99502.33;107210;1255;71895;-40
2023/08/21 09:42:56;;;;;;;7.60;4.70;;;;;;;30.55;43.13;99496.36;107154;1257;67693;-40
2023/08/21 09:45:24;;;;;;;5.40;4.60;;;;;;;30.77;43.08;99491.74;107171;1259;72737;-40
2023/08/21 09:47:52;;;;;;;5.60;4.50;;;;;;;31.02;42.56;99486.84;107165;1256;60088;-39
2023/08/21 09:50:22;;;;;;;5.40;4.50;;;;;;;31.20;41.01;99483.28;107094;1257;60006;-39
2023/08/21 09:52:50;;;;;;;5.30;4.40;;;;;;;31.30;40.55;99481.48;107154;1257;72027;-39
2023/08/21 09:55:19;;;;;;;5.20;4.50;;;;;;;31.39;39.51;99474.52;107266;1257;68342;-39
2023/08/21 09:57:46;;;;;;;13.10;4.70;;;;;;;31.49;40.26;99479.27;107242;1257;71390;-39
2023/08/21 10:00:20;;;;;;;9.90;4.80;;;;;;;31.68;40.16;99480.64;107077;1257;60052;-39
2023/08/21 10:02:51;;;;;;;8.10;4.60;;;;;;;31.94;40.22;99478.73;107229;1257;60603;-39
2023/08/21 10:05:19;;;;;;;5.90;4.50;;;;;;;32.22;39.52;99467.85;107180;1257;73060;-39
2023/08/21 10:07:48;;;;;;;5.00;4.30;;;;;;;32.43;39.15;99466.39;107132;1257;67595;-39
2023/08/21 10:10:17;;;;;;;4.90;4.40;;;;;;;32.61;38.87;99466.48;107163;1257;73528;-39
2023/08/21 10:12:45;;;;;;;5.70;4.40;;;;;;;32.77;38.45;99467.48;107202;1257;60077;-39
2023/08/21 10:15:13;;;;;;;4.60;4.10;;;;;;;32.93;37.40;99467.50;107013;1257;60144;-39
2023/08/21 10:17:41;;;;;;;5.40;4.30;;;;;;;33.08;36.13;99463.67;107131;1257;73043;-39
2023/08/21 10:20:09;;;;;;;5.20;4.30;;;;;;;33.27;36.76;99455.40;107210;1262;67617;-39
2023/08/21 10:22:48;;;;;;;4.90;4.40;;;;;;;33.49;37.55;99455.48;107272;1257;70769;-39
2023/08/21 10:25:21;;;;;;;4.70;4.00;;;;;;;33.70;36.55;99461.77;107225;1257;59673;-40
2023/08/21 10:27:55;;;;;;;5.30;4.20;;;;;;;33.93;36.21;99454.90;107244;1257;60043;-39
2023/08/21 10:30:26;;;;;;;8.30;4.20;;;;;;;34.16;35.49;99452.67;107140;1257;71828;-40
2023/08/21 10:32:55;;;;;;;7.70;4.50;;;;;;;34.25;34.51;99455.61;107038;1257;67831;-39
2023/08/21 10:35:24;;;;;;;6.40;4.60;;;;;;;34.34;35.10;99460.31;107081;1257;72680;-39
2023/08/21 10:38:12;;;;;;;4.90;4.30;;;;;;;34.43;35.11;99452.58;107152;1257;59909;-40
2023/08/21 10:40:41;;;;;;;7.30;4.50;;;;;;;34.52;35.67;99453.09;107188;1257;59571;-40
2023/08/21 10:43:39;;;;;;;5.20;4.70;;;;;;;34.57;35.76;99455.97;108165;1257;71496;-41
2023/08/21 10:50:16;;;;;;;5.80;5.00;;;;;;;34.10;36.08;99456.98;107106;1257;73141;-41
2023/08/21 10:52:47;;;;;;;5.90;5.00;;;;;;;33.78;36.94;99457.05;107125;1257;60129;-41
2023/08/21 10:55:15;;;;;;;5.10;4.60;;;;;;;33.50;37.40;99455.33;107197;1257;59281;-40
2023/08/21 10:57:45;;;;;;;;;;;;;;;33.24;37.72;99455.61;107155;1257;73032;-40
2023/08/21 11:00:14;;;;;;;5.10;4.40;;;;;;;33.01;37.52;99460.92;107093;1257;67614;-40
2023/08/21 11:02:46;;;;;;;5.70;4.50;;;;;;;32.76;37.35;99459.08;107129;1257;72816;-40
2023/08/21 11:05:14;;;;;;;5.50;4.60;;;;;;;32.55;37.58;99453.95;107086;1257;60036;-41
2023/08/21 11:07:47;;;;;;;4.70;4.30;;;;;;;32.41;38.44;99452.45;107118;1257;60011;-41
2023/08/21 11:10:21;;;;;;;6.40;4.90;;;;;;;32.22;39.05;99455.47;107179;1257;73162;-40
2023/08/21 11:12:56;;;;;;;6.50;5.20;;;;;;;32.00;40.42;99473.45;107221;1256;68069;-40
2023/08/21 11:15:25;;;;;;;9.10;5.20;;;;;;;31.73;42.57;99480.66;107101;1257;71374;-41
2023/08/21 11:18:00;;;;;;;7.20;6.40;;;;;;;31.40;43.25;99484.50;107195;1257;59634;-41
2023/08/21 11:20:32;;;;;;;8.90;5.90;;;;;;;31.04;44.05;99484.57;107242;1257;60021;-41
2023/08/21 11:23:02;;;;;;;6.90;5.40;;;;;;;30.75;44.71;99490.09;107142;1257;72981;-41
2023/08/21 11:25:30;;;;;;;6.20;5.60;;;;;;;30.53;45.44;99490.95;107216;1257;67644;-40
2023/08/21 11:27:57;;;;;;;8.60;5.60;;;;;;;30.35;46.20;99493.46;107132;1257;72676;-40
2023/08/21 11:30:25;;;;;;;6.40;5.50;;;;;;;30.23;46.62;99486.70;107221;1257;60044;-41
2023/08/21 11:33:05;;;;;;;6.70;5.90;;;;;;;30.16;46.87;99487.69;107246;1260;59983;-40
2023/08/21 11:35:33;;;;;;;8.60;5.70;;;;;;;30.06;46.69;99483.75;107247;1257;73555;-40